createdAt,value
2023-04-15T00:00:13.912Z,2.43
2023-04-15T00:01:19.510Z,2.97
2023-04-15T00:02:21.675Z,2.50
2023-04-15T00:03:23.733Z,3.30
2023-04-15T00:04:25.842Z,2.93
2023-04-15T00:05:27.539Z,3.80
2023-04-15T00:06:29.139Z,3.40
2023-04-15T00:07:31.708Z,3.20
2023-04-15T00:08:33.662Z,2.90
2023-04-15T00:09:35.220Z,3.27
2023-04-15T00:10:36.967Z,3.83
2023-04-15T00:11:38.502Z,3.70
2023-04-15T00:12:40.488Z,3.47
2023-04-15T00:13:42.098Z,3.60
2023-04-15T00:14:43.647Z,3.27
2023-04-15T00:15:45.261Z,3.43
2023-04-15T00:16:46.831Z,3.27
2023-04-15T00:17:52.052Z,3.17
2023-04-15T00:18:53.610Z,3.20
2023-04-15T00:19:55.186Z,3.57
2023-04-15T00:20:56.766Z,3.40
2023-04-15T00:21:58.331Z,3.10
2023-04-15T00:23:00.612Z,2.90
2023-04-15T00:24:02.399Z,2.97
2023-04-15T00:25:04.130Z,2.57
2023-04-15T00:26:05.721Z,2.80
2023-04-15T00:27:07.288Z,2.50
2023-04-15T00:28:09.462Z,3.03
2023-04-15T00:29:11.006Z,2.83
2023-04-15T00:30:13.436Z,3.03
2023-04-15T00:31:15.391Z,3.07
2023-04-15T00:32:16.924Z,2.70
2023-04-15T00:33:18.455Z,2.70
2023-04-15T00:34:20.324Z,3.00
2023-04-15T00:35:21.912Z,3.43
2023-04-15T00:36:23.467Z,2.73
2023-04-15T00:37:25.045Z,2.70
2023-04-15T00:38:26.847Z,2.90
2023-04-15T00:39:28.388Z,2.70
2023-04-15T00:40:29.941Z,3.13
2023-04-15T00:41:31.822Z,3.03
2023-04-15T00:42:35.017Z,2.67
2023-04-15T00:43:36.644Z,3.37
2023-04-15T00:44:38.148Z,3.27
2023-04-15T00:45:39.686Z,3.70
2023-04-15T00:46:43.414Z,3.20
2023-04-15T00:47:45.756Z,3.57
2023-04-15T00:48:47.740Z,3.73
2023-04-15T00:49:49.336Z,3.77
2023-04-15T00:50:50.839Z,3.47
2023-04-15T00:51:52.443Z,3.43
2023-04-15T00:52:53.953Z,3.57
2023-04-15T00:53:55.567Z,3.30
2023-04-15T00:54:57.727Z,3.77
2023-04-15T00:55:59.312Z,3.90
2023-04-15T00:57:02.150Z,4.00
2023-04-15T00:58:03.727Z,3.33
2023-04-15T00:59:08.760Z,3.30
2023-04-15T01:00:11.903Z,3.70
2023-04-15T01:01:13.717Z,3.83
2023-04-15T01:02:15.608Z,3.70
2023-04-15T01:03:17.253Z,3.77
2023-04-15T01:04:19.108Z,3.77
2023-04-15T01:05:20.765Z,3.60
2023-04-15T01:06:22.318Z,4.10
2023-04-15T01:07:24.022Z,3.27
2023-04-15T01:08:29.347Z,3.73
2023-04-15T01:09:30.979Z,3.33
2023-04-15T01:10:33.432Z,4.03
2023-04-15T01:11:35.425Z,3.80
2023-04-15T01:12:37.844Z,4.13
2023-04-15T01:13:40.092Z,3.93
2023-04-15T01:14:41.858Z,4.33
2023-04-15T01:15:44.650Z,3.90
2023-04-15T01:16:46.999Z,3.83
2023-04-15T01:17:48.982Z,3.90
2023-04-15T01:18:50.668Z,3.83
2023-04-15T01:19:52.804Z,3.80
2023-04-15T01:20:54.545Z,3.80
2023-04-15T01:21:56.582Z,4.47
2023-04-15T01:22:58.897Z,4.20
2023-04-15T01:24:01.497Z,4.23
2023-04-15T01:25:10.488Z,4.63
2023-04-15T01:26:12.717Z,4.20
2023-04-15T01:27:14.241Z,4.53
2023-04-15T01:28:16.496Z,4.73
2023-04-15T01:29:18.684Z,4.60
2023-04-15T01:30:20.315Z,4.70
2023-04-15T01:31:22.234Z,5.17
2023-04-15T01:32:24.414Z,4.97
2023-04-15T01:33:26.257Z,4.60
2023-04-15T01:34:30.527Z,4.90
2023-04-15T01:35:32.369Z,4.90
2023-04-15T01:36:34.394Z,5.03
2023-04-15T01:37:36.875Z,4.40
2023-04-15T01:38:38.610Z,5.30
2023-04-15T01:39:40.480Z,4.63
2023-04-15T01:40:42.026Z,4.40
2023-04-15T01:41:44.144Z,3.73
2023-04-15T01:42:45.749Z,4.17
2023-04-15T01:43:47.256Z,4.70
2023-04-15T01:44:48.808Z,4.17
2023-04-15T01:45:50.673Z,4.50
2023-04-15T01:46:52.602Z,4.40
2023-04-15T01:47:54.492Z,3.90
2023-04-15T01:48:56.647Z,4.00
2023-04-15T01:49:58.144Z,4.20
2023-04-15T01:50:59.788Z,4.83
2023-04-15T01:52:01.392Z,5.27
2023-04-15T01:53:02.923Z,4.90
2023-04-15T01:54:04.496Z,5.80
2023-04-15T01:55:08.034Z,5.20
2023-04-15T01:56:09.616Z,5.70
2023-04-15T01:57:11.132Z,5.50
2023-04-15T01:58:12.661Z,5.43
2023-04-15T01:59:14.240Z,5.50
2023-04-15T02:00:16.574Z,5.10
2023-04-15T02:01:19.874Z,5.70
2023-04-15T02:02:21.839Z,5.37
2023-04-15T02:03:25.600Z,4.90
2023-04-15T02:04:28.092Z,5.23
2023-04-15T02:05:29.774Z,5.10
2023-04-15T02:06:31.764Z,5.03
2023-04-15T02:07:33.400Z,5.33
2023-04-15T02:08:35.000Z,4.90
2023-04-15T02:09:36.542Z,5.27
2023-04-15T02:10:38.778Z,5.10
2023-04-15T02:11:40.379Z,4.73
2023-04-15T02:12:42.158Z,4.87
2023-04-15T02:13:43.709Z,5.00
2023-04-15T02:14:45.257Z,5.10
2023-04-15T02:15:50.758Z,5.37
2023-04-15T02:16:52.359Z,4.90
2023-04-15T02:17:55.415Z,4.10
2023-04-15T02:18:57.322Z,4.67
2023-04-15T02:19:59.349Z,4.40
2023-04-15T02:21:00.901Z,4.80
2023-04-15T02:22:02.666Z,4.53
2023-04-15T02:23:07.359Z,4.47
2023-04-15T02:24:09.074Z,4.50
2023-04-15T02:25:11.040Z,4.33
2023-04-15T02:26:13.004Z,4.90
2023-04-15T02:27:18.758Z,5.10
2023-04-15T02:28:20.467Z,4.77
2023-04-15T02:29:23.458Z,5.00
2023-04-15T02:30:25.956Z,5.27
2023-04-15T02:31:27.663Z,5.40
2023-04-15T02:32:29.377Z,6.03
2023-04-15T02:33:32.402Z,6.30
2023-04-15T02:34:33.956Z,5.90
2023-04-15T02:35:36.524Z,5.70
2023-04-15T02:36:39.157Z,5.40
2023-04-15T02:37:43.833Z,5.03
2023-04-15T02:38:45.911Z,5.77
2023-04-15T02:39:47.479Z,5.87
2023-04-15T02:40:50.360Z,5.07
2023-04-15T02:41:52.496Z,5.37
2023-04-15T02:42:54.017Z,5.50
2023-04-15T02:43:55.871Z,5.57
2023-04-15T02:44:58.314Z,6.03
2023-04-15T02:45:59.858Z,5.67
2023-04-15T02:47:01.414Z,5.67
2023-04-15T02:48:06.466Z,6.37
2023-04-15T02:49:08.679Z,6.43
2023-04-15T02:50:12.832Z,6.17
2023-04-15T02:51:20.036Z,6.37
2023-04-15T02:52:21.609Z,6.50
2023-04-15T02:53:23.157Z,6.40
2023-04-15T02:54:25.016Z,7.30
2023-04-15T02:55:26.937Z,6.87
2023-04-15T02:56:28.509Z,6.87
2023-04-15T02:57:30.136Z,7.03
2023-04-15T02:58:31.839Z,6.70
2023-04-15T02:59:33.395Z,7.27
2023-04-15T03:00:34.985Z,7.10
2023-04-15T03:01:36.560Z,7.40
2023-04-15T03:02:39.952Z,7.70
2023-04-15T03:03:41.903Z,6.97
2023-04-15T03:04:43.510Z,7.37
2023-04-15T03:05:44.998Z,7.37
2023-04-15T03:06:46.552Z,7.00
2023-04-15T03:07:48.058Z,6.57
2023-04-15T03:08:49.662Z,6.27
2023-04-15T03:09:51.612Z,6.97
2023-04-15T03:10:53.690Z,6.10
2023-04-15T03:11:55.315Z,6.40
2023-04-15T03:12:56.851Z,5.90
2023-04-15T03:13:58.823Z,6.10
2023-04-15T03:15:02.104Z,5.27
2023-04-15T03:16:03.751Z,5.53
2023-04-15T03:17:05.340Z,5.93
2023-04-15T03:18:06.937Z,4.50
2023-04-15T03:19:08.589Z,5.07
2023-04-15T03:20:10.437Z,4.93
2023-04-15T03:21:11.994Z,5.40
2023-04-15T03:22:13.502Z,5.37
2023-04-15T03:23:15.449Z,5.30
2023-04-15T03:24:17.050Z,5.27
2023-04-15T03:25:18.552Z,5.17
2023-04-15T03:26:30.487Z,5.70
2023-04-15T03:27:32.200Z,5.47
2023-04-15T03:28:34.154Z,5.67
2023-04-15T03:29:35.756Z,5.97
2023-04-15T03:30:37.326Z,5.70
2023-04-15T03:31:38.901Z,5.73
2023-04-15T03:32:40.785Z,5.63
2023-04-15T03:33:42.386Z,5.20
2023-04-15T03:34:44.303Z,5.43
2023-04-15T03:35:45.973Z,5.80
2023-04-15T03:36:47.616Z,5.90
2023-04-15T03:37:49.315Z,6.03
2023-04-15T03:38:51.024Z,5.57
2023-04-15T03:39:52.547Z,5.83
2023-04-15T03:40:54.045Z,6.47
2023-04-15T03:41:56.464Z,5.70
2023-04-15T03:42:58.063Z,5.23
2023-04-15T03:43:59.946Z,5.23
2023-04-15T03:45:01.657Z,5.07
2023-04-15T03:46:03.514Z,5.63
2023-04-15T03:47:05.101Z,5.20
2023-04-15T03:48:17.060Z,5.50
2023-04-15T03:49:19.974Z,5.37
2023-04-15T03:50:21.874Z,5.40
2023-04-15T03:51:23.389Z,5.13
2023-04-15T03:52:25.064Z,5.03
2023-04-15T03:53:26.622Z,5.60
2023-04-15T03:54:28.149Z,5.63
2023-04-15T03:55:29.709Z,5.40
2023-04-15T03:56:31.394Z,6.57
2023-04-15T03:57:37.947Z,6.30
2023-04-15T03:58:39.460Z,6.67
2023-04-15T03:59:41.130Z,9.50
2023-04-15T04:00:42.726Z,13.23
2023-04-15T04:01:44.328Z,8.17
2023-04-15T04:02:46.292Z,14.00
2023-04-15T04:03:48.169Z,8.73
2023-04-15T04:04:49.829Z,9.23
2023-04-15T04:05:51.774Z,18.43
2023-04-15T04:06:53.302Z,13.90
2023-04-15T04:07:54.889Z,9.73
2023-04-15T04:08:56.741Z,14.73
2023-04-15T04:09:58.413Z,8.57
2023-04-15T04:11:00.223Z,12.90
2023-04-15T04:12:02.625Z,11.77
2023-04-15T04:13:04.189Z,15.63
2023-04-15T04:14:05.714Z,11.47
2023-04-15T04:15:08.137Z,12.23
2023-04-15T04:16:09.780Z,13.23
2023-04-15T04:17:11.804Z,13.07
2023-04-15T04:18:13.459Z,13.20
2023-04-15T04:19:15.189Z,11.87
2023-04-15T04:20:16.816Z,11.60
2023-04-15T04:21:18.516Z,10.50
2023-04-15T04:22:24.167Z,11.77
2023-04-15T04:23:25.796Z,15.60
2023-04-15T04:24:27.360Z,12.93
2023-04-15T04:25:29.005Z,13.20
2023-04-15T04:26:30.564Z,12.40
2023-04-15T04:27:32.062Z,12.97
2023-04-15T04:28:33.668Z,14.83
2023-04-15T04:29:35.211Z,13.90
2023-04-15T04:30:36.812Z,13.97
2023-04-15T04:31:38.573Z,14.23
2023-04-15T04:32:40.223Z,14.23
2023-04-15T04:33:41.865Z,14.23
2023-04-15T04:34:43.384Z,11.03
2023-04-15T04:35:44.911Z,13.97
2023-04-15T04:36:46.537Z,15.87
2023-04-15T04:37:48.090Z,14.57
2023-04-15T04:38:49.693Z,17.57
2023-04-15T04:39:51.295Z,16.30
2023-04-15T04:40:52.874Z,16.10
2023-04-15T04:41:54.450Z,13.60
2023-04-15T04:42:56.015Z,13.53
2023-04-15T04:43:57.564Z,13.17
2023-04-15T04:44:59.100Z,13.00
2023-04-15T04:46:00.754Z,12.10
2023-04-15T04:47:02.324Z,11.60
2023-04-15T04:48:07.254Z,10.37
2023-04-15T04:49:08.888Z,9.83
2023-04-15T04:50:10.640Z,9.93
2023-04-15T04:51:12.197Z,8.97
2023-04-15T04:52:13.729Z,9.17
2023-04-15T04:53:15.459Z,9.20
2023-04-15T04:54:17.648Z,8.77
2023-04-15T04:55:19.384Z,8.30
2023-04-15T04:56:21.378Z,7.90
2023-04-15T04:57:23.010Z,8.17
2023-04-15T04:58:24.589Z,7.77
2023-04-15T04:59:26.502Z,7.67
2023-04-15T05:00:28.182Z,7.63
2023-04-15T05:01:29.867Z,7.63
2023-04-15T05:02:32.527Z,8.10
2023-04-15T05:03:34.364Z,7.93
2023-04-15T05:04:37.162Z,7.60
2023-04-15T05:05:41.138Z,7.40
2023-04-15T05:06:42.662Z,7.70
2023-04-15T05:07:45.002Z,7.63
2023-04-15T05:08:47.137Z,7.43
2023-04-15T05:09:48.682Z,7.37
2023-04-15T05:10:50.471Z,7.37
2023-04-15T05:11:51.976Z,6.50
2023-04-15T05:12:53.546Z,6.50
2023-04-15T05:13:55.408Z,5.93
2023-04-15T05:14:56.917Z,5.60
2023-04-15T05:15:58.587Z,5.53
2023-04-15T05:17:00.193Z,5.83
2023-04-15T05:18:01.815Z,5.13
2023-04-15T05:19:03.580Z,5.53
2023-04-15T05:20:05.640Z,5.67
2023-04-15T05:21:07.758Z,5.50
2023-04-15T05:22:09.390Z,5.37
2023-04-15T05:23:11.014Z,4.57
2023-04-15T05:24:12.592Z,5.60
2023-04-15T05:25:14.149Z,5.40
2023-04-15T05:26:15.759Z,5.60
2023-04-15T05:27:17.314Z,5.40
2023-04-15T05:28:18.877Z,5.63
2023-04-15T05:29:20.885Z,5.43
2023-04-15T05:30:22.400Z,5.70
2023-04-15T05:31:23.984Z,6.53
2023-04-15T05:32:25.659Z,6.90
2023-04-15T05:33:27.629Z,7.20
2023-04-15T05:34:29.258Z,7.70
2023-04-15T05:35:30.832Z,8.63
2023-04-15T05:36:32.448Z,8.33
2023-04-15T05:37:34.100Z,8.57
2023-04-15T05:38:35.931Z,7.63
2023-04-15T05:39:37.497Z,7.40
2023-04-15T05:40:38.983Z,7.73
2023-04-15T05:41:40.594Z,7.57
2023-04-15T05:42:42.104Z,7.80
2023-04-15T05:43:43.643Z,7.03
2023-04-15T05:44:45.221Z,6.40
2023-04-15T05:45:46.820Z,7.97
2023-04-15T05:46:48.393Z,7.97
2023-04-15T05:47:51.036Z,7.10
2023-04-15T05:48:54.667Z,10.30
2023-04-15T05:49:58.932Z,7.63
2023-04-15T05:51:01.309Z,8.83
2023-04-15T05:52:03.312Z,7.13
2023-04-15T05:53:04.942Z,7.53
2023-04-15T05:54:06.878Z,7.77
2023-04-15T05:55:08.871Z,8.13
2023-04-15T05:56:10.665Z,7.33
2023-04-15T05:57:12.196Z,7.33
2023-04-15T05:58:13.708Z,7.17
2023-04-15T05:59:15.392Z,7.00
2023-04-15T06:00:17.042Z,6.87
2023-04-15T06:01:18.726Z,6.53
2023-04-15T06:02:20.557Z,6.93
2023-04-15T06:03:23.176Z,6.90
2023-04-15T06:04:24.940Z,7.17
2023-04-15T06:05:26.617Z,7.07
2023-04-15T06:06:28.613Z,6.70
2023-04-15T06:07:30.176Z,6.87
2023-04-15T06:08:31.760Z,6.70
2023-04-15T06:09:33.906Z,6.70
2023-04-15T06:10:36.829Z,5.97
2023-04-15T06:11:38.514Z,6.87
2023-04-15T06:12:40.191Z,6.73
2023-04-15T06:13:41.742Z,7.07
2023-04-15T06:14:43.378Z,6.53
2023-04-15T06:15:44.955Z,7.30
2023-04-15T06:16:47.055Z,7.03
2023-04-15T06:17:48.693Z,6.70
2023-04-15T06:18:50.419Z,6.70
2023-04-15T06:19:55.696Z,7.07
2023-04-15T06:20:57.548Z,7.27
2023-04-15T06:21:59.377Z,7.20
2023-04-15T06:23:01.150Z,7.70
2023-04-15T06:24:02.852Z,7.77
2023-04-15T06:25:05.217Z,9.00
2023-04-15T06:26:07.060Z,9.43
2023-04-15T06:27:08.600Z,9.53
2023-04-15T06:28:10.344Z,10.57
2023-04-15T06:29:11.918Z,11.37
2023-04-15T06:30:13.553Z,11.53
2023-04-15T06:31:15.295Z,11.33
2023-04-15T06:32:16.893Z,11.27
2023-04-15T06:33:18.438Z,11.63
2023-04-15T06:34:20.081Z,11.17
2023-04-15T06:35:22.199Z,10.87
2023-04-15T06:36:23.719Z,10.27
2023-04-15T06:37:25.382Z,10.00
2023-04-15T06:38:26.911Z,10.03
2023-04-15T06:39:28.469Z,9.80
2023-04-15T06:40:30.037Z,9.50
2023-04-15T06:41:31.786Z,10.43
2023-04-15T06:42:34.064Z,10.83
2023-04-15T06:43:35.713Z,10.30
2023-04-15T06:44:37.329Z,10.50
2023-04-15T06:45:39.537Z,10.93
2023-04-15T06:46:41.399Z,10.30
2023-04-15T06:47:43.634Z,10.60
2023-04-15T06:48:45.687Z,10.13
2023-04-15T06:49:47.230Z,9.93
2023-04-15T06:50:52.577Z,10.23
2023-04-15T06:51:54.172Z,9.50
2023-04-15T06:52:56.277Z,10.57
2023-04-15T06:53:57.935Z,10.63
2023-04-15T06:54:59.825Z,10.67
2023-04-15T06:56:01.407Z,10.23
2023-04-15T06:57:03.025Z,8.97
2023-04-15T06:58:04.628Z,8.60
2023-04-15T06:59:06.659Z,9.33
2023-04-15T07:00:08.730Z,8.17
2023-04-15T07:01:10.461Z,7.60
2023-04-15T07:02:14.046Z,8.43
2023-04-15T07:03:15.656Z,7.47
2023-04-15T07:04:17.248Z,8.50
2023-04-15T07:05:19.106Z,7.73
2023-04-15T07:06:21.971Z,7.47
2023-04-15T07:07:23.447Z,7.47
2023-04-15T07:08:25.668Z,7.23
2023-04-15T07:09:27.346Z,6.97
2023-04-15T07:10:28.967Z,5.83
2023-04-15T07:11:30.565Z,6.70
2023-04-15T07:12:32.185Z,6.03
2023-04-15T07:13:34.566Z,6.70
2023-04-15T07:14:36.574Z,5.80
2023-04-15T07:15:38.187Z,6.00
2023-04-15T07:16:39.811Z,4.10
2023-04-15T07:17:43.283Z,5.87
2023-04-15T07:18:44.987Z,5.60
2023-04-15T07:19:46.518Z,5.67
2023-04-15T07:20:48.816Z,5.83
2023-04-15T07:21:50.494Z,5.00
2023-04-15T07:22:52.054Z,5.83
2023-04-15T07:23:53.615Z,5.57
2023-04-15T07:24:55.146Z,5.07
2023-04-15T07:25:57.458Z,5.30
2023-04-15T07:27:00.860Z,4.40
2023-04-15T07:28:03.023Z,5.13
2023-04-15T07:29:04.580Z,4.87
2023-04-15T07:30:06.970Z,4.83
2023-04-15T07:31:09.064Z,5.00
2023-04-15T07:32:10.883Z,5.23
2023-04-15T07:33:12.693Z,5.50
2023-04-15T07:34:14.655Z,5.37
2023-04-15T07:35:16.321Z,4.20
2023-04-15T07:36:17.825Z,5.07
2023-04-15T07:37:19.923Z,5.17
2023-04-15T07:38:22.206Z,4.20
2023-04-15T07:39:23.757Z,4.70
2023-04-15T07:40:25.427Z,4.30
2023-04-15T07:41:27.579Z,4.13
2023-04-15T07:42:29.418Z,4.60
2023-04-15T07:43:30.999Z,3.93
2023-04-15T07:44:32.591Z,3.97
2023-04-15T07:45:34.339Z,4.07
2023-04-15T07:46:37.309Z,4.27
2023-04-15T07:47:38.945Z,4.13
2023-04-15T07:48:40.798Z,4.13
2023-04-15T07:49:43.447Z,4.20
2023-04-15T07:50:45.002Z,3.87
2023-04-15T07:51:46.579Z,4.67
2023-04-15T07:52:49.140Z,4.30
2023-04-15T07:53:50.762Z,4.17
2023-04-15T07:54:52.293Z,4.37
2023-04-15T07:55:53.781Z,3.90
2023-04-15T07:56:56.492Z,4.50
2023-04-15T07:57:58.057Z,4.47
2023-04-15T07:59:02.315Z,4.03
2023-04-15T08:00:07.601Z,3.97
2023-04-15T08:01:09.188Z,5.03
2023-04-15T08:02:11.810Z,4.67
2023-04-15T08:03:13.719Z,4.07
2023-04-15T08:04:15.819Z,3.70
2023-04-15T08:05:17.507Z,3.67
2023-04-15T08:06:19.553Z,3.27
2023-04-15T08:07:21.444Z,2.90
2023-04-15T08:08:23.172Z,3.47
2023-04-15T08:09:24.760Z,2.10
2023-04-15T08:10:26.264Z,2.00
2023-04-15T08:11:27.904Z,2.00
2023-04-15T08:12:29.527Z,2.20
2023-04-15T08:13:31.102Z,2.20
2023-04-15T08:14:32.727Z,2.30
2023-04-15T08:15:34.357Z,2.77
2023-04-15T08:16:36.101Z,2.03
2023-04-15T08:17:37.715Z,1.93
2023-04-15T08:18:39.293Z,1.57
2023-04-15T08:19:41.368Z,1.37
2023-04-15T08:20:43.265Z,1.90
2023-04-15T08:21:44.824Z,1.63
2023-04-15T08:22:47.936Z,1.50
2023-04-15T08:23:51.144Z,1.40
2023-04-15T08:24:52.679Z,1.40
2023-04-15T08:25:54.187Z,1.80
2023-04-15T08:26:56.697Z,1.60
2023-04-15T08:27:58.295Z,1.52
2023-04-15T08:29:00.111Z,1.70
2023-04-15T08:30:04.639Z,1.85
2023-04-15T08:31:06.836Z,2.10
2023-04-15T08:32:09.607Z,2.00
2023-04-15T08:33:11.157Z,1.73
2023-04-15T08:34:13.233Z,1.80
2023-04-15T08:35:15.476Z,1.30
2023-04-15T08:36:17.648Z,1.60
2023-04-15T08:37:19.172Z,1.52
2023-04-15T08:38:20.738Z,1.58
2023-04-15T08:39:22.293Z,0.90
2023-04-15T08:40:30.753Z,1.30
2023-04-15T08:41:45.453Z,1.23
2023-04-15T08:42:53.026Z,1.30
2023-04-15T08:43:58.995Z,1.00
2023-04-15T08:45:01.895Z,1.05
2023-04-15T08:46:05.228Z,1.25
2023-04-15T08:47:08.697Z,0.80
2023-04-15T08:48:16.639Z,1.00
2023-04-15T08:49:21.547Z,0.90
2023-04-15T08:50:25.374Z,1.10
2023-04-15T08:51:27.231Z,0.87
2023-04-15T08:52:31.597Z,1.08
2023-04-15T08:53:33.786Z,0.97
2023-04-15T08:54:36.568Z,0.73
2023-04-15T08:55:45.925Z,0.80
2023-04-15T08:56:48.842Z,0.80
2023-04-15T08:57:51.303Z,1.00
2023-04-15T08:58:53.370Z,0.80
2023-04-15T08:59:58.448Z,0.80
2023-04-15T09:01:00.131Z,0.60
2023-04-15T09:02:02.785Z,0.90
2023-04-15T09:03:08.915Z,0.90
2023-04-15T09:04:12.538Z,0.90
2023-04-15T09:05:14.450Z,0.80
2023-04-15T09:06:17.672Z,0.90
2023-04-15T09:07:19.311Z,0.60
2023-04-15T09:08:21.025Z,0.90
2023-04-15T09:09:22.846Z,0.93
2023-04-15T09:10:24.510Z,0.90
2023-04-15T09:11:26.157Z,0.90
2023-04-15T09:12:27.669Z,0.73
2023-04-15T09:13:29.863Z,0.97
2023-04-15T09:14:34.006Z,0.53
2023-04-15T09:15:38.532Z,0.70
2023-04-15T09:17:02.925Z,1.10
2023-04-15T09:18:05.850Z,0.50
2023-04-15T09:19:24.476Z,0.50
2023-04-15T09:20:26.392Z,0.67
2023-04-15T09:21:29.545Z,0.50
2023-04-15T09:22:34.299Z,0.50
2023-04-15T09:23:36.926Z,0.80
2023-04-15T09:24:40.973Z,0.90
2023-04-15T09:25:42.659Z,1.27
2023-04-15T09:26:44.250Z,1.03
2023-04-15T09:27:49.916Z,0.60
2023-04-15T09:28:51.449Z,0.50
2023-04-15T09:29:54.195Z,0.70
2023-04-15T09:30:59.926Z,0.50
2023-04-15T09:32:11.722Z,0.90
2023-04-15T09:33:14.965Z,0.73
2023-04-15T09:34:16.606Z,0.87
2023-04-15T09:35:18.975Z,0.87
2023-04-15T09:36:20.545Z,0.83
2023-04-15T09:37:35.681Z,0.80
2023-04-15T09:38:55.254Z,0.80
2023-04-15T09:39:56.864Z,0.97
2023-04-15T09:40:59.354Z,0.80
2023-04-15T09:42:07.694Z,0.83
2023-04-15T09:43:13.051Z,0.87
2023-04-15T09:44:25.303Z,0.73
2023-04-15T09:45:29.500Z,1.07
2023-04-15T09:46:45.097Z,0.83
2023-04-15T09:47:46.633Z,1.07
2023-04-15T09:49:07.749Z,0.53
2023-04-15T09:50:09.707Z,0.80
2023-04-15T09:51:11.285Z,1.20
2023-04-15T09:52:14.051Z,0.80
2023-04-15T09:53:20.560Z,0.70
2023-04-15T09:54:22.436Z,0.77
2023-04-15T09:55:23.996Z,0.80
2023-04-15T09:56:34.828Z,0.70
2023-04-15T09:57:38.106Z,0.80
2023-04-15T09:58:41.654Z,0.60
2023-04-15T09:59:43.201Z,0.90
2023-04-15T10:00:47.091Z,0.90
2023-04-15T10:01:49.163Z,0.80
2023-04-15T10:02:52.016Z,0.80
2023-04-15T10:03:57.004Z,0.90
2023-04-15T10:04:59.702Z,0.90
2023-04-15T10:06:02.200Z,0.83
2023-04-15T10:07:05.517Z,0.93
2023-04-15T10:08:07.813Z,0.80
2023-04-15T10:09:09.639Z,0.90
2023-04-15T10:10:12.926Z,0.90
2023-04-15T10:11:14.550Z,0.80
2023-04-15T10:12:18.190Z,0.60
2023-04-15T10:13:22.484Z,0.57
2023-04-15T10:14:26.952Z,0.67
2023-04-15T10:15:29.874Z,0.70
2023-04-15T10:16:33.081Z,1.03
2023-04-15T10:17:37.247Z,1.13
2023-04-15T10:18:43.104Z,0.90
2023-04-15T10:19:45.749Z,0.70
2023-04-15T10:20:49.012Z,0.97
2023-04-15T10:21:51.557Z,0.93
2023-04-15T10:22:53.693Z,0.80
2023-04-15T10:23:55.564Z,1.13
2023-04-15T10:24:57.758Z,0.73
2023-04-15T10:26:00.116Z,1.08
2023-04-15T10:27:04.418Z,0.80
2023-04-15T10:28:08.393Z,0.70
2023-04-15T10:29:10.928Z,0.50
2023-04-15T10:30:12.945Z,0.82
2023-04-15T10:31:15.092Z,0.80
2023-04-15T10:32:20.178Z,0.93
2023-04-15T10:33:24.551Z,1.00
2023-04-15T10:34:27.089Z,0.93
2023-04-15T10:35:30.735Z,1.17
2023-04-15T10:36:33.415Z,0.80
2023-04-15T10:37:39.042Z,1.15
2023-04-15T10:38:43.234Z,1.52
2023-04-15T10:39:45.209Z,1.17
2023-04-15T10:40:47.023Z,1.13
2023-04-15T10:42:07.387Z,0.93
2023-04-15T10:43:25.589Z,0.70
2023-04-15T10:44:27.142Z,0.77
2023-04-15T10:45:33.165Z,0.85
2023-04-15T10:46:47.492Z,0.80
2023-04-15T10:47:55.699Z,0.60
2023-04-15T10:48:57.726Z,1.00
2023-04-15T10:50:01.418Z,0.73
2023-04-15T10:51:05.107Z,0.98
2023-04-15T10:52:08.694Z,0.90
2023-04-15T10:53:11.143Z,1.00
2023-04-15T10:54:24.689Z,0.80
2023-04-15T10:55:31.388Z,0.70
2023-04-15T10:56:33.026Z,0.85
2023-04-15T10:57:37.714Z,0.90
2023-04-15T10:58:43.362Z,0.63
2023-04-15T11:00:00.071Z,0.67
2023-04-15T11:01:03.480Z,1.00
2023-04-15T11:02:07.362Z,0.77
2023-04-15T11:03:10.365Z,0.70
2023-04-15T11:04:12.196Z,0.90
2023-04-15T11:05:16.166Z,0.70
2023-04-15T11:06:17.814Z,0.80
2023-04-15T11:07:39.385Z,0.90
2023-04-15T11:08:59.296Z,0.80
2023-04-15T11:10:01.833Z,0.88
2023-04-15T11:11:03.455Z,0.68
2023-04-15T11:12:09.795Z,0.63
2023-04-15T11:13:11.423Z,0.80
2023-04-15T11:14:16.400Z,0.63
2023-04-15T11:15:37.974Z,0.98
2023-04-15T11:16:45.028Z,0.70
2023-04-15T11:17:46.774Z,0.70
2023-04-15T11:18:57.442Z,0.50
2023-04-15T11:19:59.000Z,0.88
2023-04-15T11:21:03.525Z,0.80
2023-04-15T11:22:11.912Z,0.57
2023-04-15T11:23:15.851Z,0.50
2023-04-15T11:24:27.216Z,0.60
2023-04-15T11:25:31.088Z,0.60
2023-04-15T11:26:32.889Z,0.70
2023-04-15T11:27:34.436Z,0.73
2023-04-15T11:28:38.301Z,0.60
2023-04-15T11:29:40.781Z,1.07
2023-04-15T11:30:42.793Z,0.60
2023-04-15T11:31:49.609Z,0.90
2023-04-15T11:32:52.483Z,0.70
2023-04-15T11:34:01.679Z,0.60
2023-04-15T11:35:03.443Z,0.60
2023-04-15T11:36:05.351Z,0.85
2023-04-15T11:37:07.920Z,0.55
2023-04-15T11:38:15.403Z,0.70
2023-04-15T11:39:16.984Z,0.82
2023-04-15T11:40:29.632Z,0.57
2023-04-15T11:41:31.250Z,0.77
2023-04-15T11:42:46.467Z,0.83
2023-04-15T11:43:51.639Z,0.50
2023-04-15T11:45:07.552Z,0.70
2023-04-15T11:46:09.181Z,0.60
2023-04-15T11:47:26.243Z,0.70
2023-04-15T11:48:30.727Z,0.50
2023-04-15T11:49:34.027Z,0.68
2023-04-15T11:50:36.876Z,0.70
2023-04-15T11:51:38.596Z,0.38
2023-04-15T11:52:40.800Z,0.80
2023-04-15T11:53:46.529Z,0.50
2023-04-15T11:54:48.360Z,0.65
2023-04-15T11:55:52.795Z,0.60
2023-04-15T11:56:54.660Z,0.63
2023-04-15T11:58:25.310Z,0.47
2023-04-15T11:59:35.658Z,0.50
2023-04-15T12:00:54.194Z,0.82
2023-04-15T12:01:56.360Z,0.70
2023-04-15T12:03:21.911Z,0.82
2023-04-15T12:04:25.368Z,0.90
2023-04-15T12:05:27.308Z,0.77
2023-04-15T12:06:39.093Z,0.77
2023-04-15T12:08:02.950Z,0.52
2023-04-15T12:09:08.720Z,0.60
2023-04-15T12:10:10.662Z,0.80
2023-04-15T12:11:12.226Z,0.90
2023-04-15T12:12:13.825Z,0.80
2023-04-15T12:13:15.400Z,0.97
2023-04-15T12:14:32.924Z,0.75
2023-04-15T12:15:39.336Z,0.87
2023-04-15T12:17:05.015Z,1.13
2023-04-15T12:18:06.636Z,0.73
2023-04-15T12:19:13.583Z,0.90
2023-04-15T12:20:21.527Z,0.83
2023-04-15T12:21:24.691Z,0.83
2023-04-15T12:22:26.198Z,0.70
2023-04-15T12:23:27.799Z,0.70
2023-04-15T12:24:32.278Z,0.83
2023-04-15T12:25:36.901Z,0.90
2023-04-15T12:26:47.872Z,0.97
2023-04-15T12:27:53.388Z,0.80
2023-04-15T12:29:01.820Z,0.70
2023-04-15T12:30:05.041Z,1.07
2023-04-15T12:31:15.668Z,1.07
2023-04-15T12:32:21.069Z,1.00
2023-04-15T12:33:22.780Z,1.13
2023-04-15T12:34:32.690Z,1.17
2023-04-15T12:35:34.333Z,1.00
2023-04-15T12:36:38.439Z,0.70
2023-04-15T12:37:39.985Z,0.82
2023-04-15T12:38:41.921Z,0.83
2023-04-15T12:39:45.291Z,0.80
2023-04-15T12:40:47.355Z,0.90
2023-04-15T12:41:48.970Z,1.00
2023-04-15T12:42:50.512Z,0.83
2023-04-15T12:43:52.183Z,0.73
2023-04-15T12:44:53.735Z,1.00
2023-04-15T12:45:55.558Z,1.00
2023-04-15T12:46:57.637Z,0.90
2023-04-15T12:47:59.387Z,1.10
2023-04-15T12:49:01.422Z,1.10
2023-04-15T12:50:03.253Z,1.27
2023-04-15T12:51:05.811Z,1.10
2023-04-15T12:52:07.703Z,0.90
2023-04-15T12:53:09.455Z,0.77
2023-04-15T12:54:11.207Z,1.30
2023-04-15T12:55:12.962Z,1.00
2023-04-15T12:56:14.703Z,0.93
2023-04-15T12:57:16.223Z,0.93
2023-04-15T12:58:17.918Z,0.97
2023-04-15T12:59:19.606Z,1.10
2023-04-15T13:00:21.224Z,0.57
2023-04-15T13:01:23.223Z,0.70
2023-04-15T13:02:25.775Z,0.80
2023-04-15T13:03:27.681Z,0.90
2023-04-15T13:04:31.346Z,0.83
2023-04-15T13:05:33.266Z,0.93
2023-04-15T13:06:34.854Z,0.93
2023-04-15T13:07:36.439Z,0.80
2023-04-15T13:08:42.575Z,0.70
2023-04-15T13:09:46.843Z,1.00
2023-04-15T13:10:48.455Z,1.07
2023-04-15T13:11:50.157Z,0.90
2023-04-15T13:12:53.702Z,1.00
2023-04-15T13:13:56.963Z,1.20
2023-04-15T13:14:58.549Z,0.80
2023-04-15T13:16:00.173Z,2.00
2023-04-15T13:17:02.857Z,2.10
2023-04-15T13:18:07.345Z,1.10
2023-04-15T13:19:08.910Z,1.30
2023-04-15T13:20:10.804Z,1.63
2023-04-15T13:21:12.875Z,1.20
2023-04-15T13:22:15.261Z,1.20
2023-04-15T13:23:17.077Z,2.13
2023-04-15T13:24:18.635Z,1.13
2023-04-15T13:25:20.368Z,1.37
2023-04-15T13:26:22.325Z,1.37
2023-04-15T13:27:24.004Z,1.03
2023-04-15T13:28:25.577Z,1.87
2023-04-15T13:29:27.155Z,1.60
2023-04-15T13:30:28.775Z,1.27
2023-04-15T13:31:30.595Z,2.17
2023-04-15T13:32:32.227Z,1.27
2023-04-15T13:33:33.784Z,1.07
2023-04-15T13:34:35.400Z,0.90
2023-04-15T13:35:36.921Z,1.07
2023-04-15T13:36:38.517Z,0.87
2023-04-15T13:37:41.150Z,0.90
2023-04-15T13:38:42.822Z,0.90
2023-04-15T13:39:44.342Z,0.90
2023-04-15T13:40:46.079Z,0.87
2023-04-15T13:41:48.530Z,0.80
2023-04-15T13:42:52.093Z,1.63
2023-04-15T13:43:53.596Z,0.97
2023-04-15T13:44:55.609Z,0.90
2023-04-15T13:45:57.222Z,1.50
2023-04-15T13:46:58.852Z,0.93
2023-04-15T13:48:00.541Z,1.53
2023-04-15T13:49:02.123Z,0.90
2023-04-15T13:50:03.904Z,1.50
2023-04-15T13:51:05.556Z,1.07
2023-04-15T13:52:07.160Z,0.70
2023-04-15T13:53:08.656Z,2.03
2023-04-15T13:54:10.178Z,1.50
2023-04-15T13:55:19.356Z,1.17
2023-04-15T13:56:22.717Z,1.27